createdAt,value
2018-12-01T00:00:30.223Z,-5.32
2018-12-01T00:02:59.177Z,-5.43
2018-12-01T00:05:27.844Z,-5.44
2018-12-01T00:07:56.908Z,-5.30
2018-12-01T00:10:25.535Z,-5.26
2018-12-01T00:12:54.273Z,-5.27
2018-12-01T00:15:25.295Z,-5.25
2018-12-01T00:17:54.272Z,-5.36
2018-12-01T00:20:24.301Z,-5.49
2018-12-01T00:22:53.000Z,-5.44
2018-12-01T00:25:21.645Z,-5.54
2018-12-01T00:27:50.326Z,-5.56
2018-12-01T00:30:20.620Z,-5.50
2018-12-01T00:32:50.047Z,-5.52
2018-12-01T00:35:18.776Z,-5.76
2018-12-01T00:37:47.545Z,-5.60
2018-12-01T00:40:17.606Z,-5.59
2018-12-01T00:42:46.330Z,-5.61
2018-12-01T00:45:16.145Z,-5.68
2018-12-01T00:47:45.994Z,-5.68
2018-12-01T00:50:15.555Z,-5.66
2018-12-01T00:52:44.750Z,-5.53
2018-12-01T00:55:16.190Z,-5.54
2018-12-01T00:57:44.908Z,-5.56
2018-12-01T01:00:28.605Z,-5.56
2018-12-01T01:02:58.612Z,-5.57
2018-12-01T01:05:31.276Z,-5.55
2018-12-01T01:08:00.836Z,-5.56
2018-12-01T01:10:32.658Z,-5.58
2018-12-01T01:13:01.340Z,-5.50
2018-12-01T01:15:30.137Z,-5.45
2018-12-01T01:17:58.753Z,-5.51
2018-12-01T01:20:27.433Z,-5.47
2018-12-01T01:22:56.093Z,-5.51
2018-12-01T01:25:24.751Z,-5.44
2018-12-01T01:27:53.453Z,-5.42
2018-12-01T01:30:23.921Z,-5.40
2018-12-01T01:32:57.558Z,-5.52
2018-12-01T01:35:26.252Z,-5.50
2018-12-01T01:37:54.940Z,-5.43
2018-12-01T01:40:23.670Z,-5.41
2018-12-01T01:42:52.413Z,-5.38
2018-12-01T01:45:21.236Z,-5.23
2018-12-01T01:47:49.866Z,-5.31
2018-12-01T01:50:19.770Z,-5.31
2018-12-01T01:52:48.507Z,-5.27
2018-12-01T01:55:17.141Z,-5.28
2018-12-01T01:57:45.787Z,-5.23
2018-12-01T02:00:19.315Z,-5.20
2018-12-01T02:02:49.996Z,-5.18
2018-12-01T02:05:21.820Z,-5.23
2018-12-01T02:07:50.581Z,-5.33
2018-12-01T02:10:20.209Z,-5.42
2018-12-01T02:12:48.821Z,-6.73
2018-12-01T02:15:17.473Z,-5.44
2018-12-01T02:17:46.062Z,-5.41
2018-12-01T02:20:16.376Z,-5.44
2018-12-01T02:22:45.119Z,-5.41
2018-12-01T02:25:14.817Z,-5.39
2018-12-01T02:27:43.549Z,-5.28
2018-12-01T02:30:17.321Z,-5.29
2018-12-01T02:32:46.693Z,-5.34
2018-12-01T02:35:16.769Z,-5.42
2018-12-01T02:37:45.376Z,-5.52
2018-12-01T02:40:14.445Z,-5.43
2018-12-01T02:42:43.608Z,-5.32
2018-12-01T02:45:23.372Z,-5.29
2018-12-01T02:47:52.097Z,-5.21
2018-12-01T02:50:23.675Z,-5.34
2018-12-01T02:52:53.231Z,-5.41
2018-12-01T02:55:22.009Z,-5.39
2018-12-01T02:57:50.944Z,-5.34
2018-12-01T03:00:19.628Z,-5.34
2018-12-01T03:02:48.265Z,-5.42
2018-12-01T03:05:16.962Z,-5.42
2018-12-01T03:07:45.638Z,-5.52
2018-12-01T03:10:17.195Z,-5.59
2018-12-01T03:12:45.842Z,-5.62
2018-12-01T03:15:17.808Z,-5.60
2018-12-01T03:17:46.910Z,-5.57
2018-12-01T03:20:16.350Z,-5.88
2018-12-01T03:22:45.044Z,-5.53
2018-12-01T03:25:19.657Z,-5.48
2018-12-01T03:27:49.147Z,-5.48
2018-12-01T03:30:20.589Z,-5.47
2018-12-01T03:32:50.213Z,-5.44
2018-12-01T03:35:19.360Z,-5.35
2018-12-01T03:37:49.103Z,-5.41
2018-12-01T03:40:18.662Z,-5.53
2018-12-01T03:42:47.380Z,-5.38
2018-12-01T03:45:18.019Z,-5.34
2018-12-01T03:47:46.736Z,-5.47
2018-12-01T03:50:27.434Z,-5.49
2018-12-01T03:52:57.224Z,-5.47
2018-12-01T03:55:31.205Z,-5.47
2018-12-01T03:58:00.115Z,-5.47
2018-12-01T04:00:31.618Z,-5.43
2018-12-01T04:03:02.083Z,-5.44
2018-12-01T04:05:30.943Z,-5.57
2018-12-01T04:07:59.670Z,-5.57
2018-12-01T04:10:28.403Z,-5.55
2018-12-01T04:12:57.390Z,-5.47
2018-12-01T04:15:26.481Z,-5.36
2018-12-01T04:17:55.223Z,-5.38
2018-12-01T04:20:23.905Z,-5.32
2018-12-01T04:22:52.546Z,-5.33
2018-12-01T04:25:21.217Z,-5.34
2018-12-01T04:27:49.907Z,-5.43
2018-12-01T04:30:19.887Z,-5.44
2018-12-01T04:32:48.672Z,-5.41
2018-12-01T04:35:18.185Z,-5.36
2018-12-01T04:37:48.024Z,-5.40
2018-12-01T04:40:16.782Z,-5.34
2018-12-01T04:42:46.290Z,-5.19
2018-12-01T04:45:14.946Z,-5.16
2018-12-01T04:47:43.832Z,-5.24
2018-12-01T04:50:13.751Z,-5.32
2018-12-01T04:52:42.514Z,-5.33
2018-12-01T04:55:12.206Z,-5.35
2018-12-01T04:57:40.882Z,-5.30
2018-12-01T05:00:14.315Z,-5.26
2018-12-01T05:02:42.934Z,-5.27
2018-12-01T05:05:13.703Z,-5.33
2018-12-01T05:07:42.645Z,-5.36
2018-12-01T05:10:13.414Z,-5.29
2018-12-01T05:12:42.042Z,-5.28
2018-12-01T05:15:12.910Z,-5.30
2018-12-01T05:17:41.613Z,-5.28
2018-12-01T05:20:13.569Z,-5.24
2018-12-01T05:22:42.196Z,-5.23
2018-12-01T05:25:11.273Z,-5.31
2018-12-01T05:27:39.998Z,-5.26
2018-12-01T05:30:09.226Z,-5.31
2018-12-01T05:32:38.724Z,-5.40
2018-12-01T05:35:17.174Z,-5.49
2018-12-01T05:37:45.846Z,-5.55
2018-12-01T05:40:14.666Z,-5.54
2018-12-01T05:42:43.330Z,-5.55
2018-12-01T05:45:15.111Z,-5.64
2018-12-01T05:47:43.685Z,-5.93
2018-12-01T05:50:13.230Z,-5.75
2018-12-01T05:52:41.923Z,-5.70
2018-12-01T05:55:11.897Z,-5.65
2018-12-01T05:57:40.570Z,-5.77
2018-12-01T06:00:13.302Z,-5.77
2018-12-01T06:02:41.929Z,-5.81
2018-12-01T06:05:11.291Z,-5.79
2018-12-01T06:07:40.287Z,-5.77
2018-12-01T06:10:13.487Z,-5.71
2018-12-01T06:12:42.188Z,-5.73
2018-12-01T06:15:12.725Z,-5.46
2018-12-01T06:17:41.586Z,-5.17
2018-12-01T06:20:14.581Z,-4.98
2018-12-01T06:22:43.283Z,-4.86
2018-12-01T06:25:16.069Z,-4.96
2018-12-01T06:27:44.732Z,-4.92
2018-12-01T06:30:14.695Z,-4.53
2018-12-01T06:32:43.686Z,-4.15
2018-12-01T06:35:12.595Z,-3.63
2018-12-01T06:37:41.299Z,-3.29
2018-12-01T06:40:12.855Z,-2.83
2018-12-01T06:42:41.539Z,-2.90
2018-12-01T06:45:12.218Z,-2.80
2018-12-01T06:47:40.967Z,-2.97
2018-12-01T06:50:11.869Z,-2.65
2018-12-01T06:52:40.548Z,-2.39
2018-12-01T06:55:10.673Z,-2.17
2018-12-01T06:57:39.389Z,-2.19
2018-12-01T07:00:15.019Z,-2.04
2018-12-01T07:02:44.513Z,-2.08
2018-12-01T07:05:14.168Z,-2.11
2018-12-01T07:07:42.855Z,-1.78
2018-12-01T07:10:12.648Z,-1.45
2018-12-01T07:12:42.601Z,-1.20
2018-12-01T07:15:14.990Z,-1.23
2018-12-01T07:17:44.291Z,-1.24
2018-12-01T07:20:12.965Z,-1.11
2018-12-01T07:22:41.613Z,-0.91
2018-12-01T07:25:10.316Z,-0.70
2018-12-01T07:27:38.988Z,-0.69
2018-12-01T07:30:11.903Z,-0.76
2018-12-01T07:32:40.816Z,-0.60
2018-12-01T07:35:09.808Z,-0.34
2018-12-01T07:37:38.799Z,-0.50
2018-12-01T07:40:11.118Z,-0.32
2018-12-01T07:42:39.854Z,-0.36
2018-12-01T07:45:11.472Z,-0.51
2018-12-01T07:47:40.147Z,-0.21
2018-12-01T07:50:14.085Z,0.07
2018-12-01T07:52:44.081Z,-0.09
2018-12-01T07:55:12.851Z,0.06
2018-12-01T07:57:41.476Z,0.14
2018-12-01T08:00:12.771Z,-0.01
2018-12-01T08:02:41.758Z,0.42
2018-12-01T08:05:11.359Z,0.57
2018-12-01T08:07:40.017Z,0.83
2018-12-01T08:10:11.705Z,0.88
2018-12-01T08:12:40.370Z,0.53
2018-12-01T08:15:17.543Z,1.02
2018-12-01T08:17:46.667Z,1.12
2018-12-01T08:20:16.176Z,0.92
2018-12-01T08:22:44.928Z,0.55
2018-12-01T08:25:15.693Z,0.78
2018-12-01T08:27:44.863Z,0.82
2018-12-01T08:30:23.353Z,1.57
2018-12-01T08:32:52.028Z,2.08
2018-12-01T08:35:20.829Z,2.01
2018-12-01T08:37:49.477Z,1.35
2018-12-01T08:40:20.174Z,0.87
2018-12-01T08:42:48.796Z,1.03
2018-12-01T08:45:18.310Z,1.53
2018-12-01T08:47:46.979Z,1.73
2018-12-01T08:50:17.723Z,1.90
2018-12-01T08:52:46.549Z,2.04
2018-12-01T08:55:16.415Z,1.81
2018-12-01T08:57:45.114Z,1.37
2018-12-01T09:00:16.119Z,1.23
2018-12-01T09:02:45.960Z,1.53
2018-12-01T09:05:14.634Z,1.69
2018-12-01T09:07:43.271Z,2.12
2018-12-01T09:10:11.961Z,2.12
2018-12-01T09:12:40.783Z,1.68
2018-12-01T09:15:11.423Z,2.09
2018-12-01T09:17:40.433Z,1.78
2018-12-01T09:20:11.150Z,2.49
2018-12-01T09:22:40.959Z,2.42
2018-12-01T09:25:11.435Z,2.33
2018-12-01T09:27:40.268Z,2.17
2018-12-01T09:30:20.280Z,2.57
2018-12-01T09:32:49.059Z,2.92
2018-12-01T09:35:17.755Z,2.51
2018-12-01T09:37:46.437Z,2.79
2018-12-01T09:40:16.404Z,2.58
2018-12-01T09:42:45.255Z,2.81
2018-12-01T09:45:14.959Z,2.64
2018-12-01T09:47:44.412Z,2.25
2018-12-01T09:50:14.948Z,2.63
2018-12-01T09:52:43.940Z,2.91
2018-12-01T09:55:16.012Z,2.48
2018-12-01T09:57:45.211Z,2.03
2018-12-01T10:00:17.061Z,2.52
2018-12-01T10:02:46.459Z,3.15
2018-12-01T10:05:16.416Z,3.40
2018-12-01T10:07:45.120Z,3.32
2018-12-01T10:10:14.996Z,2.92
2018-12-01T10:12:43.735Z,2.80
2018-12-01T10:15:13.643Z,2.99
2018-12-01T10:17:42.449Z,2.95
2018-12-01T10:20:12.646Z,3.02
2018-12-01T10:22:41.477Z,3.08
2018-12-01T10:25:11.537Z,3.53
2018-12-01T10:27:40.378Z,3.60
2018-12-01T10:30:24.907Z,3.49
2018-12-01T10:32:53.759Z,3.84
2018-12-01T10:35:24.376Z,4.01
2018-12-01T10:38:12.321Z,3.72
2018-12-01T10:40:41.052Z,3.46
2018-12-01T10:43:09.762Z,3.25
2018-12-01T10:45:38.432Z,2.64
2018-12-01T10:48:09.133Z,2.96
2018-12-01T10:50:37.949Z,3.14
2018-12-01T10:53:07.110Z,3.52
2018-12-01T10:55:36.767Z,3.59
2018-12-01T10:58:09.692Z,3.85
2018-12-01T11:00:43.584Z,3.75
2018-12-01T11:03:18.337Z,3.59
2018-12-01T11:05:46.994Z,3.17
2018-12-01T11:08:16.367Z,3.20
2018-12-01T11:10:45.536Z,3.16
2018-12-01T11:13:14.543Z,2.94
2018-12-01T11:15:43.257Z,2.76
2018-12-01T11:18:12.085Z,2.74
2018-12-01T11:20:40.757Z,3.00
2018-12-01T11:23:09.462Z,3.25
2018-12-01T11:25:38.796Z,3.44
2018-12-01T11:28:14.359Z,3.60
2018-12-01T11:30:43.779Z,3.42
2018-12-01T11:33:12.474Z,3.28
2018-12-01T11:35:41.251Z,2.90
2018-12-01T11:38:10.169Z,2.71
2018-12-01T11:40:38.802Z,2.57
2018-12-01T11:43:08.682Z,2.37
2018-12-01T11:45:37.421Z,2.36
2018-12-01T11:48:06.779Z,2.43
2018-12-01T11:50:35.469Z,2.53
2018-12-01T11:53:04.203Z,2.73
2018-12-01T11:55:32.881Z,2.79
2018-12-01T11:58:01.591Z,2.80
2018-12-01T12:00:30.306Z,2.30
2018-12-01T12:02:59.037Z,2.53
2018-12-01T12:05:27.775Z,2.73
2018-12-01T12:08:07.408Z,2.93
2018-12-01T12:10:36.111Z,3.02
2018-12-01T12:13:04.783Z,2.94
2018-12-01T12:15:33.457Z,2.93
2018-12-01T12:18:02.998Z,2.37
2018-12-01T12:20:31.906Z,2.23
2018-12-01T12:23:00.603Z,2.27
2018-12-01T12:25:29.292Z,2.22
2018-12-01T12:27:58.094Z,2.40
2018-12-01T12:30:26.715Z,2.50
2018-12-01T12:32:55.410Z,2.56
2018-12-01T12:35:24.065Z,2.74
2018-12-01T12:37:52.787Z,2.60
2018-12-01T12:40:22.492Z,2.31
2018-12-01T12:42:51.863Z,2.32
2018-12-01T12:45:23.613Z,2.39
2018-12-01T12:47:52.491Z,2.57
2018-12-01T12:50:21.247Z,2.60
2018-12-01T12:52:50.949Z,2.54
2018-12-01T12:55:20.541Z,2.59
2018-12-01T12:57:49.298Z,2.67
2018-12-01T13:00:22.643Z,2.64
2018-12-01T13:02:58.196Z,2.52
2018-12-01T13:05:28.179Z,2.50
2018-12-01T13:07:56.981Z,2.66
2018-12-01T13:10:26.472Z,2.73
2018-12-01T13:12:55.205Z,2.82
2018-12-01T13:15:23.901Z,2.72
2018-12-01T13:17:52.525Z,0.68
2018-12-01T13:20:23.023Z,2.66
2018-12-01T13:22:56.885Z,2.59
2018-12-01T13:25:25.691Z,2.62
2018-12-01T13:27:56.840Z,2.57
2018-12-01T13:30:27.239Z,2.60
2018-12-01T13:32:56.287Z,2.54
2018-12-01T13:35:25.060Z,2.13
2018-12-01T13:37:54.695Z,1.88
2018-12-01T13:40:23.429Z,1.89
2018-12-01T13:42:52.138Z,1.85
2018-12-01T13:45:21.515Z,1.80
2018-12-01T13:47:51.465Z,1.73
2018-12-01T13:50:21.205Z,1.68
2018-12-01T13:52:54.255Z,1.79
2018-12-01T13:55:23.412Z,1.74
2018-12-01T13:57:52.305Z,1.76
2018-12-01T14:00:23.274Z,1.76
2018-12-01T14:02:51.905Z,1.73
2018-12-01T14:08:03.745Z,1.67
2018-12-01T14:10:33.150Z,1.67
2018-12-01T14:13:03.322Z,1.67
2018-12-01T14:15:32.200Z,1.66
2018-12-01T14:18:00.893Z,1.58
2018-12-01T14:20:29.667Z,1.41
2018-12-01T14:22:58.365Z,1.27
2018-12-01T14:25:27.062Z,1.21
2018-12-01T14:28:00.079Z,1.33
2018-12-01T14:30:29.087Z,1.34
2018-12-01T14:32:57.770Z,1.39
2018-12-01T14:35:27.684Z,1.43
2018-12-01T14:37:58.853Z,1.44
2018-12-01T14:40:27.777Z,1.37
2018-12-01T14:42:56.415Z,1.44
2018-12-01T14:45:25.810Z,1.38
2018-12-01T14:47:54.474Z,1.41
2018-12-01T14:50:23.138Z,1.33
2018-12-01T14:52:51.846Z,1.24
2018-12-01T14:55:20.497Z,1.20
2018-12-01T14:57:49.136Z,1.23
2018-12-01T15:00:24.320Z,1.28
2018-12-01T15:02:53.899Z,1.22
2018-12-01T15:05:22.607Z,1.16
2018-12-01T15:07:51.355Z,1.06
2018-12-01T15:10:21.908Z,1.08
2018-12-01T15:12:50.917Z,1.08
2018-12-01T15:15:20.891Z,1.13
2018-12-01T15:17:49.505Z,1.10
2018-12-01T15:20:20.006Z,1.12
2018-12-01T15:22:53.846Z,1.14
2018-12-01T15:25:25.655Z,1.11
2018-12-01T15:27:54.348Z,1.07
2018-12-01T15:30:26.700Z,1.02
2018-12-01T15:33:14.328Z,0.97
2018-12-01T15:35:43.912Z,0.96
2018-12-01T15:38:12.662Z,0.79
2018-12-01T15:40:44.890Z,0.76
2018-12-01T15:43:13.637Z,0.65
2018-12-01T15:45:42.575Z,0.60
2018-12-01T15:48:11.229Z,0.54
2018-12-01T15:50:39.882Z,0.49
2018-12-01T15:53:11.250Z,0.40
2018-12-01T15:55:39.976Z,0.34
2018-12-01T15:58:08.993Z,0.32
2018-12-01T16:00:40.234Z,0.34
2018-12-01T16:03:08.995Z,0.34
2018-12-01T16:05:37.662Z,0.34
2018-12-01T16:08:07.543Z,0.33
2018-12-01T16:10:36.249Z,0.34
2018-12-01T16:13:08.902Z,0.34
2018-12-01T16:15:41.164Z,0.27
2018-12-01T16:18:10.571Z,0.29
2018-12-01T16:20:39.395Z,0.25
2018-12-01T16:23:08.053Z,0.26
2018-12-01T16:25:36.800Z,0.21
2018-12-01T16:28:05.601Z,0.26
2018-12-01T16:30:37.169Z,0.18
2018-12-01T16:33:08.247Z,0.09
2018-12-01T16:35:37.011Z,-0.18
2018-12-01T16:38:06.894Z,0.02
2018-12-01T16:40:38.950Z,0.04
2018-12-01T16:43:09.740Z,-1.42
2018-12-01T16:45:38.425Z,-0.01
2018-12-01T16:48:07.835Z,0.01
2018-12-01T16:50:36.548Z,0.00
2018-12-01T16:53:05.918Z,0.04
2018-12-01T16:55:35.468Z,0.12
2018-12-01T16:58:04.836Z,0.11
2018-12-01T17:00:34.382Z,0.10
2018-12-01T17:03:02.994Z,0.16
2018-12-01T17:05:33.182Z,0.11
2018-12-01T17:08:01.867Z,0.02
2018-12-01T17:10:30.754Z,-0.01
2018-12-01T17:12:59.477Z,-0.04
2018-12-01T17:15:28.378Z,-0.10
2018-12-01T17:17:57.156Z,-0.09
2018-12-01T17:20:25.921Z,-0.05
2018-12-01T17:22:56.094Z,0.02
2018-12-01T17:25:24.717Z,0.00
2018-12-01T17:27:54.507Z,0.06
2018-12-01T17:30:26.240Z,0.06
2018-12-01T17:32:56.905Z,-0.04
2018-12-01T17:35:29.047Z,-0.05
2018-12-01T17:37:59.468Z,-0.06
2018-12-01T17:40:40.973Z,-0.02
2018-12-01T17:43:20.613Z,0.04
2018-12-01T17:45:49.552Z,0.05
2018-12-01T17:48:18.422Z,0.08
2018-12-01T17:50:47.078Z,0.09
2018-12-01T17:53:15.922Z,-0.08
2018-12-01T17:55:45.109Z,0.11
2018-12-01T17:58:13.827Z,0.11
2018-12-01T18:00:42.560Z,0.04
2018-12-01T18:03:11.346Z,0.00
2018-12-01T18:05:45.858Z,0.04
2018-12-01T18:08:17.961Z,0.01
2018-12-01T18:10:47.922Z,-0.04
2018-12-01T18:13:17.198Z,-0.06
2018-12-01T18:15:45.871Z,-0.18
2018-12-01T18:18:14.577Z,-0.28
2018-12-01T18:20:45.081Z,-0.32
2018-12-01T18:23:19.262Z,-0.37
2018-12-01T18:25:50.699Z,-0.35
2018-12-01T18:28:36.132Z,-0.33
2018-12-01T18:31:08.836Z,-0.32
2018-12-01T18:33:39.400Z,-0.28
2018-12-01T18:36:10.038Z,-0.23
2018-12-01T18:38:38.949Z,-0.28
2018-12-01T18:41:08.416Z,-0.25
2018-12-01T18:43:37.052Z,-0.31
2018-12-01T18:46:10.824Z,-0.30
2018-12-01T18:48:39.483Z,-0.37
2018-12-01T18:51:09.056Z,-0.49
2018-12-01T18:53:37.868Z,-0.49
2018-12-01T18:56:07.131Z,-0.53
2018-12-01T18:58:35.795Z,-0.61
2018-12-01T19:01:05.708Z,-0.77
2018-12-01T19:03:36.056Z,-0.81
2018-12-01T19:06:04.901Z,-0.91
2018-12-01T19:08:35.137Z,-0.99
2018-12-01T19:11:04.961Z,-0.89
2018-12-01T19:13:33.646Z,-0.87
2018-12-01T19:16:02.353Z,-0.86
2018-12-01T19:18:30.982Z,-0.84
2018-12-01T19:20:59.693Z,-0.76
2018-12-01T19:23:28.407Z,-0.59
2018-12-01T19:25:57.012Z,-0.63
2018-12-01T19:28:26.008Z,-0.80
2018-12-01T19:30:54.704Z,-0.86
2018-12-01T19:33:24.424Z,-0.92
2018-12-01T19:35:54.130Z,-0.98
2018-12-01T19:38:27.154Z,-0.93
2018-12-01T19:40:56.793Z,-1.11
2018-12-01T19:43:25.568Z,-1.18
2018-12-01T19:45:54.209Z,-1.18
2018-12-01T19:48:22.930Z,-1.13
2018-12-01T19:50:51.650Z,-0.94
2018-12-01T19:53:21.455Z,-0.88
2018-12-01T19:55:52.281Z,-2.20
2018-12-01T19:58:22.582Z,-0.81
2018-12-01T20:00:53.624Z,-0.70
2018-12-01T20:03:23.290Z,-0.78
2018-12-01T20:05:51.983Z,-0.81
2018-12-01T20:08:21.405Z,-0.77
2018-12-01T20:10:55.094Z,-0.63
2018-12-01T20:16:38.402Z,-0.40
2018-12-01T20:19:08.048Z,-0.29
2018-12-01T20:21:37.490Z,-0.27
2018-12-01T20:24:07.705Z,-0.25
2018-12-01T20:26:37.744Z,-0.23
2018-12-01T20:29:07.000Z,-0.19
2018-12-01T20:31:35.723Z,-0.23
2018-12-01T20:34:04.895Z,-0.24
2018-12-01T20:36:36.778Z,-0.19
2018-12-01T20:39:40.427Z,-0.23
2018-12-01T20:42:09.195Z,-0.17
2018-12-01T20:44:37.901Z,-0.14
2018-12-01T20:47:06.804Z,-0.15
2018-12-01T20:49:35.478Z,-0.17
2018-12-01T20:52:04.263Z,-0.22
2018-12-01T20:54:38.435Z,-0.34
2018-12-01T20:57:16.342Z,-0.31
2018-12-01T20:59:45.451Z,-0.35
2018-12-01T21:02:14.211Z,-0.31
2018-12-01T21:04:43.010Z,-0.43
2018-12-01T21:07:11.685Z,-0.60
2018-12-01T21:09:40.400Z,-0.67
2018-12-01T21:12:10.560Z,-0.73
2018-12-01T21:14:39.341Z,-0.83
2018-12-01T21:17:08.062Z,-0.85
2018-12-01T21:19:36.857Z,-0.85
2018-12-01T21:22:05.981Z,-0.99
2018-12-01T21:24:35.735Z,-1.06
2018-12-01T21:27:04.531Z,-1.42
2018-12-01T21:29:33.268Z,-1.18
2018-12-01T21:32:01.975Z,-1.12
2018-12-01T21:34:30.625Z,-1.13
2018-12-01T21:36:59.295Z,-1.19
2018-12-01T21:39:28.025Z,-1.27
2018-12-01T21:41:58.918Z,-1.30
2018-12-01T21:44:31.889Z,-1.31
2018-12-01T21:47:00.942Z,-1.38
2018-12-01T21:49:29.576Z,-1.52
2018-12-01T21:51:58.228Z,-1.19
2018-12-01T21:54:27.393Z,-1.31
2018-12-01T21:56:57.808Z,-1.40
2018-12-01T21:59:26.540Z,-1.46
2018-12-01T22:01:59.683Z,-1.23
2018-12-01T22:04:33.492Z,-1.26
2018-12-01T22:07:02.369Z,-1.27
2018-12-01T22:09:47.627Z,-1.28
2018-12-01T22:12:16.319Z,-1.19
2018-12-01T22:14:45.090Z,-1.25
2018-12-01T22:17:14.771Z,-1.26
2018-12-01T22:19:43.496Z,-1.23
2018-12-01T22:22:12.185Z,-1.21
2018-12-01T22:24:40.879Z,-1.19
2018-12-01T22:27:09.598Z,-1.15
2018-12-01T22:29:38.259Z,-1.04
2018-12-01T22:32:07.141Z,-1.04
2018-12-01T22:34:35.836Z,-0.75
2018-12-01T22:37:04.712Z,-0.72
2018-12-01T22:39:34.299Z,-0.82
2018-12-01T22:42:03.020Z,-0.93
2018-12-01T22:44:32.802Z,-0.96
2018-12-01T22:47:02.973Z,-1.05
2018-12-01T22:49:33.248Z,-1.02
2018-12-01T22:52:02.000Z,-1.03
2018-12-01T22:54:31.981Z,-0.89
2018-12-01T22:57:02.096Z,-0.59
2018-12-01T22:59:32.308Z,-0.49
2018-12-01T23:02:01.424Z,-0.76
2018-12-01T23:04:30.424Z,-0.83
2018-12-01T23:06:59.185Z,-0.80
2018-12-01T23:09:27.982Z,-0.76
2018-12-01T23:11:56.797Z,-0.92
2018-12-01T23:14:25.457Z,-1.07
2018-12-01T23:16:54.186Z,-1.16
2018-12-01T23:19:23.486Z,-1.27
2018-12-01T23:21:52.272Z,-1.34
2018-12-01T23:24:22.091Z,-1.32
2018-12-01T23:26:50.764Z,-1.33
2018-12-01T23:29:19.651Z,-1.38
2018-12-01T23:31:48.509Z,-1.37
2018-12-01T23:34:20.172Z,-1.37
2018-12-01T23:36:50.432Z,-1.37
2018-12-01T23:39:19.795Z,-1.33
2018-12-01T23:41:49.966Z,-1.30
2018-12-01T23:44:29.332Z,-1.37
2018-12-01T23:47:00.472Z,-1.40
2018-12-01T23:49:29.648Z,-1.35
2018-12-01T23:51:59.428Z,-1.35
2018-12-01T23:54:28.064Z,-1.33
2018-12-01T23:56:56.751Z,-1.20
2018-12-01T23:59:25.430Z,-1.15
